Time;durP1;ratioP1;P1;durP2;ratioP2;P2;SDS_P1;SDS_P2;PMS_P1;PMS_P2;Temp;Humidity;BMP_temperature;BMP_pressure;BME280_temperature;BME280_humidity;BME280_pressure;Samples;Min_cycle;Max_cycle;Signal;HPM_P1;HPM_P2
2023/11/16 00:01:57;;;;;;;2.23;1.37;;;;;;;7.31;100.00;153238.88;5057850;28;20521;-76
2023/11/16 00:04:27;;;;;;;4.43;1.80;;;;;;;7.29;100.00;153233.72;5050325;28;20464;-76
2023/11/16 00:06:54;;;;;;;3.27;1.93;;;;;;;7.27;100.00;153228.56;5035047;28;20458;-76
2023/11/16 00:09:21;;;;;;;4.00;2.10;;;;;;;7.24;100.00;153220.81;5035021;28;20509;-75
2023/11/16 00:11:48;;;;;;;3.90;1.70;;;;;;;7.21;100.00;153211.78;5037821;28;20463;-76
2023/11/16 00:14:15;;;;;;;2.70;1.90;;;;;;;7.16;100.00;153200.16;5033524;28;20772;-76
2023/11/16 00:16:44;;;;;;;4.37;2.43;;;;;;;7.14;100.00;153195.00;5036928;28;20451;-76
2023/11/16 00:19:12;;;;;;;2.50;1.67;;;;;;;7.12;100.00;153189.81;5032752;28;20523;-76
2023/11/16 00:21:40;;;;;;;3.53;1.70;;;;;;;7.11;100.00;153187.25;5041470;28;20574;-76
2023/11/16 00:24:07;;;;;;;5.23;2.10;;;;;;;7.08;100.00;153179.50;5042017;28;20431;-75
2023/11/16 00:26:34;;;;;;;2.37;1.70;;;;;;;7.06;100.00;153174.34;5054278;28;20533;-75
2023/11/16 00:29:01;;;;;;;2.13;1.67;;;;;;;7.03;100.00;153165.28;5051131;28;20508;-76
2023/11/16 00:31:30;;;;;;;5.07;2.60;;;;;;;7.00;100.00;153158.84;5033525;28;20439;-76
2023/11/16 00:33:57;;;;;;;2.97;1.80;;;;;;;6.99;100.00;153155.00;5034408;28;20461;-75
2023/11/16 00:36:24;;;;;;;3.57;1.63;;;;;;;6.96;100.00;153148.53;5054123;28;20489;-75
2023/11/16 00:38:52;;;;;;;2.60;2.00;;;;;;;6.96;100.00;153147.25;5032071;28;20906;-76
2023/11/16 00:41:18;;;;;;;3.77;2.30;;;;;;;6.96;100.00;153148.53;5040834;28;20556;-76
2023/11/16 00:43:45;;;;;;;3.97;2.43;;;;;;;6.94;100.00;153143.34;5018690;28;20470;-76
2023/11/16 00:46:12;;;;;;;4.00;2.13;;;;;;;6.93;100.00;153140.78;5033673;28;20868;-76
2023/11/16 00:48:39;;;;;;;2.40;1.90;;;;;;;6.92;100.00;153138.19;5033569;28;20450;-76
2023/11/16 00:51:07;;;;;;;3.50;2.07;;;;;;;6.93;100.00;153139.47;5048458;28;20524;-76
2023/11/16 00:53:34;;;;;;;3.00;1.93;;;;;;;6.92;100.00;153138.19;5037028;28;20545;-75
2023/11/16 00:56:02;;;;;;;2.67;1.73;;;;;;;6.93;100.00;153139.47;5031889;28;20450;-76
2023/11/16 00:58:28;;;;;;;2.00;1.40;;;;;;;6.96;100.00;153147.25;5050739;28;21032;-76
2023/11/16 01:00:56;;;;;;;3.60;2.40;;;;;;;6.96;100.00;153148.53;5011359;28;20459;-76
2023/11/16 01:03:23;;;;;;;5.53;2.03;;;;;;;6.96;100.00;153147.25;5052445;28;20451;-76
2023/11/16 01:05:50;;;;;;;2.63;2.00;;;;;;;6.96;100.00;153148.53;5051109;28;20450;-76
2023/11/16 01:08:21;;;;;;;2.93;1.80;;;;;;;6.95;100.00;153145.94;5051516;28;20928;-76
2023/11/16 01:10:49;;;;;;;3.83;2.47;;;;;;;6.96;100.00;153148.53;5030826;28;20454;-76
2023/11/16 01:13:23;;;;;;;5.13;2.20;;;;;;;6.93;100.00;153140.78;5051251;28;20835;-75
2023/11/16 01:15:50;;;;;;;2.30;1.63;;;;;;;6.92;100.00;153136.88;5050084;28;20450;-76
2023/11/16 01:18:16;;;;;;;2.57;1.60;;;;;;;6.92;100.00;153136.88;5049991;28;20447;-76
2023/11/16 01:20:43;;;;;;;2.43;1.60;;;;;;;6.86;100.00;153122.69;5015127;28;21227;-76
2023/11/16 01:23:11;;;;;;;3.00;1.73;;;;;;;6.85;100.00;153118.81;5044451;28;20450;-76
2023/11/16 01:25:40;;;;;;;3.37;1.87;;;;;;;6.82;100.00;153111.06;5034802;28;20456;-76
2023/11/16 01:28:07;;;;;;;2.20;1.90;;;;;;;6.80;100.00;153107.22;5030527;28;20825;-76
2023/11/16 01:30:35;;;;;;;2.63;2.00;;;;;;;6.80;100.00;153105.91;5033399;28;20545;-76
2023/11/16 01:33:04;;;;;;;4.30;1.80;;;;;;;6.78;100.00;153100.78;5050372;28;20483;-76
2023/11/16 01:35:33;;;;;;;2.53;1.70;;;;;;;6.73;100.00;153090.41;5049174;28;20442;-76
2023/11/16 01:37:59;;;;;;;4.73;1.90;;;;;;;6.71;100.00;153083.97;5051853;28;20497;-76
2023/11/16 01:40:27;;;;;;;2.23;1.63;;;;;;;6.70;100.00;153081.38;5032394;28;20455;-76
2023/11/16 01:42:56;;;;;;;3.63;1.57;;;;;;;6.68;100.00;153076.22;5042570;28;20505;-76
2023/11/16 01:45:29;;;;;;;3.20;1.90;;;;;;;6.69;100.00;153078.81;5048998;28;20525;-76
2023/11/16 01:48:00;;;;;;;7.87;2.33;;;;;;;6.69;100.00;153080.13;5030420;28;20458;-76
2023/11/16 01:50:28;;;;;;;2.20;1.50;;;;;;;6.68;100.00;153077.50;5028188;28;20452;-76
2023/11/16 01:53:02;;;;;;;5.97;1.77;;;;;;;6.67;100.00;153073.66;5031827;28;20920;-76
2023/11/16 01:55:30;;;;;;;3.90;1.80;;;;;;;6.68;100.00;153076.22;5010087;28;20480;-76
2023/11/16 01:57:58;;;;;;;4.40;1.87;;;;;;;6.69;100.00;153080.13;5032119;28;20442;-76
2023/11/16 02:00:25;;;;;;;4.53;1.70;;;;;;;6.70;100.00;153081.38;5032398;28;20439;-75
2023/11/16 02:02:53;;;;;;;3.37;1.67;;;;;;;6.70;100.00;153081.38;5029338;28;20438;-76
2023/11/16 02:05:21;;;;;;;3.53;1.70;;;;;;;6.72;100.00;153087.81;5033426;28;20469;-76
2023/11/16 02:07:48;;;;;;;2.50;1.63;;;;;;;6.76;100.00;153096.88;5032619;28;20446;-76
2023/11/16 02:10:15;;;;;;;4.70;2.40;;;;;;;6.77;100.00;153099.47;5029073;28;20467;-76
2023/11/16 02:12:51;;;;;;;2.77;1.80;;;;;;;6.79;100.00;153104.63;5019225;28;20471;-76
2023/11/16 02:15:18;;;;;;;2.60;1.77;;;;;;;6.80;100.00;153107.22;5015650;28;20447;-76
2023/11/16 02:17:44;;;;;;;2.33;2.10;;;;;;;6.78;100.00;153102.03;5030505;28;20446;-75
2023/11/16 02:20:12;;;;;;;4.40;2.07;;;;;;;6.75;100.00;153094.31;5018098;28;20455;-76
2023/11/16 02:22:40;;;;;;;3.37;2.00;;;;;;;6.75;100.00;153094.31;5015648;28;20458;-76
2023/11/16 02:25:11;;;;;;;2.90;1.93;;;;;;;6.73;100.00;153089.13;5014427;28;20446;-76
2023/11/16 02:27:40;;;;;;;3.20;2.33;;;;;;;6.73;100.00;153089.13;5030943;28;20443;-76
2023/11/16 02:30:07;;;;;;;3.47;2.00;;;;;;;6.72;100.00;153086.56;5051205;28;20521;-76
2023/11/16 02:32:34;;;;;;;2.40;2.00;;;;;;;6.72;100.00;153086.56;5049474;28;20509;-75
2023/11/16 02:35:02;;;;;;;6.63;2.20;;;;;;;6.72;100.00;153086.56;5031165;28;20514;-79
2023/11/16 02:37:28;;;;;;;4.40;2.30;;;;;;;6.72;100.00;153087.81;5033412;28;20477;-76
2023/11/16 02:39:56;;;;;;;2.47;1.70;;;;;;;6.75;100.00;153095.56;5030504;28;20470;-75
2023/11/16 02:42:23;;;;;;;4.47;1.90;;;;;;;6.78;100.00;153100.78;5049120;28;20478;-76
2023/11/16 02:44:52;;;;;;;3.30;2.20;;;;;;;6.77;100.00;153098.19;5031895;28;20474;-76
2023/11/16 02:47:18;;;;;;;3.27;1.70;;;;;;;6.78;100.00;153102.03;5033610;28;20462;-76
2023/11/16 02:49:44;;;;;;;1.93;1.40;;;;;;;6.79;100.00;153103.31;5035876;28;20476;-75
2023/11/16 02:52:11;;;;;;;2.73;1.70;;;;;;;6.78;100.00;153102.03;5031320;28;20439;-75
2023/11/16 02:54:38;;;;;;;4.80;1.67;;;;;;;6.80;100.00;153105.91;5048970;28;20547;-76
2023/11/16 02:57:06;;;;;;;7.63;2.30;;;;;;;6.81;100.00;153109.78;5029327;28;20661;-76
2023/11/16 02:59:34;;;;;;;2.27;1.73;;;;;;;6.80;100.00;153107.22;5049510;28;20461;-75
2023/11/16 03:02:05;;;;;;;3.63;1.90;;;;;;;6.78;100.00;153102.03;5048687;28;20858;-76
2023/11/16 03:04:32;;;;;;;4.53;1.70;;;;;;;6.77;100.00;153098.19;5030363;28;20583;-76
2023/11/16 03:06:58;;;;;;;2.90;1.93;;;;;;;6.76;100.00;153096.88;5036317;28;21056;-76
2023/11/16 03:09:26;;;;;;;2.67;2.13;;;;;;;6.75;100.00;153094.31;5048951;28;21259;-75
2023/11/16 03:11:53;;;;;;;2.80;1.73;;;;;;;6.73;100.00;153089.13;5031597;28;20435;-76
2023/11/16 03:14:20;;;;;;;2.80;1.93;;;;;;;6.72;100.00;153086.56;5048757;28;20540;-75
2023/11/16 03:16:49;;;;;;;4.00;1.73;;;;;;;6.72;100.00;153086.56;5048481;28;20455;-75
2023/11/16 03:19:16;;;;;;;2.70;1.70;;;;;;;6.70;100.00;153081.38;5015633;28;20962;-75
2023/11/16 03:21:42;;;;;;;2.20;1.67;;;;;;;6.67;100.00;153074.91;5023324;28;20886;-76
2023/11/16 03:24:12;;;;;;;3.73;1.73;;;;;;;6.67;100.00;153073.66;5031357;28;20439;-76
2023/11/16 03:26:39;;;;;;;3.40;1.80;;;;;;;6.66;100.00;153071.06;5006613;28;20862;-75
2023/11/16 03:29:06;;;;;;;5.00;1.60;;;;;;;6.65;100.00;153068.47;5040185;28;21441;-75
2023/11/16 03:31:35;;;;;;;2.60;1.80;;;;;;;6.64;100.00;153065.91;5046895;28;20512;-75
2023/11/16 03:34:04;;;;;;;3.43;1.73;;;;;;;6.63;100.00;153064.63;5048934;28;20528;-76
2023/11/16 03:36:30;;;;;;;3.63;1.90;;;;;;;6.62;100.00;153060.72;5029432;28;20453;-75
2023/11/16 03:38:57;;;;;;;2.60;1.63;;;;;;;6.61;100.00;153058.16;5031513;28;20477;-76
2023/11/16 03:41:24;;;;;;;2.60;1.70;;;;;;;6.61;100.00;153058.16;5030579;28;20441;-76
2023/11/16 03:43:51;;;;;;;2.00;1.70;;;;;;;6.62;100.00;153062.03;5048722;28;20439;-75
2023/11/16 03:46:17;;;;;;;2.03;1.43;;;;;;;6.61;100.00;153058.16;5032688;28;20827;-76
2023/11/16 03:48:44;;;;;;;3.10;2.07;;;;;;;6.61;100.00;153058.16;5048913;28;20443;-76
2023/11/16 03:51:16;;;;;;;6.33;1.60;;;;;;;6.59;100.00;153054.28;5030948;28;20457;-76
2023/11/16 03:53:43;;;;;;;5.10;1.70;;;;;;;6.57;100.00;153047.81;5030496;28;20540;-76
2023/11/16 03:56:09;;;;;;;3.63;1.77;;;;;;;6.57;100.00;153049.13;5040336;28;20461;-75
2023/11/16 03:58:36;;;;;;;4.30;1.83;;;;;;;6.58;100.00;153050.41;5014654;28;20446;-76
2023/11/16 04:01:03;;;;;;;2.80;1.60;;;;;;;6.59;100.00;153053.00;5014913;28;20882;-76
2023/11/16 04:03:31;;;;;;;2.27;1.60;;;;;;;6.60;100.00;153056.88;5038673;28;20444;-75
2023/11/16 04:05:59;;;;;;;2.30;1.30;;;;;;;6.61;100.00;153059.47;5052416;28;20462;-75
2023/11/16 04:08:27;;;;;;;2.40;1.70;;;;;;;6.64;100.00;153067.22;5013395;28;20447;-75
2023/11/16 04:10:54;;;;;;;3.57;2.00;;;;;;;6.66;100.00;153071.06;5035448;28;20883;-75
2023/11/16 04:13:20;;;;;;;2.67;1.63;;;;;;;6.68;100.00;153077.50;5051592;28;20486;-76
2023/11/16 04:15:47;;;;;;;1.50;1.30;;;;;;;6.69;100.00;153078.81;5051523;28;20882;-75
2023/11/16 04:18:13;;;;;;;2.50;1.73;;;;;;;6.70;100.00;153081.38;5051461;28;20445;-74
2023/11/16 04:20:40;;;;;;;3.43;2.00;;;;;;;6.73;100.00;153089.13;5048632;28;20502;-75
2023/11/16 04:23:06;;;;;;;2.50;1.70;;;;;;;6.76;100.00;153096.88;5033626;28;20470;-76
2023/11/16 04:25:36;;;;;;;3.73;1.77;;;;;;;6.74;100.00;153093.03;5033363;28;20979;-74
2023/11/16 04:28:04;;;;;;;4.33;2.13;;;;;;;6.76;100.00;153096.88;5051421;28;20445;-75
2023/11/16 04:30:31;;;;;;;3.43;1.97;;;;;;;6.77;100.00;153098.19;5051765;28;20459;-75
2023/11/16 04:32:58;;;;;;;3.40;1.80;;;;;;;6.78;100.00;153102.03;5029954;28;20431;-75
2023/11/16 04:35:25;;;;;;;3.37;2.10;;;;;;;6.79;100.00;153104.63;5052305;28;20931;-75
2023/11/16 04:37:53;;;;;;;4.27;2.00;;;;;;;6.80;100.00;153107.22;5052799;28;20451;-76
2023/11/16 04:40:22;;;;;;;2.80;2.07;;;;;;;6.82;100.00;153111.06;5032626;28;20469;-75
2023/11/16 04:42:50;;;;;;;4.77;1.97;;;;;;;6.82;100.00;153112.38;5049842;28;20438;-75
2023/11/16 04:45:18;;;;;;;3.70;1.77;;;;;;;6.86;100.00;153121.44;5030874;28;20474;-74
2023/11/16 04:47:46;;;;;;;3.07;1.67;;;;;;;6.86;100.00;153122.69;5016523;28;20469;-75
2023/11/16 04:50:16;;;;;;;4.07;2.17;;;;;;;6.87;100.00;153125.28;5032588;28;20462;-76
2023/11/16 04:52:42;;;;;;;3.33;1.50;;;;;;;6.87;100.00;153125.28;5032557;28;20968;-76
2023/11/16 04:55:09;;;;;;;4.00;1.90;;;;;;;6.88;100.00;153127.88;5032479;28;20488;-76
2023/11/16 04:57:36;;;;;;;3.87;2.43;;;;;;;6.89;100.00;153129.13;5037008;28;20469;-76
2023/11/16 05:00:06;;;;;;;3.00;2.07;;;;;;;6.90;100.00;153133.03;5050530;28;20844;-75
2023/11/16 05:02:33;;;;;;;3.83;2.07;;;;;;;6.89;100.00;153130.44;5055232;28;20634;-76
2023/11/16 05:05:00;;;;;;;2.57;2.00;;;;;;;6.91;100.00;153135.59;5042443;28;23009;-76
2023/11/16 05:07:27;;;;;;;3.57;2.00;;;;;;;6.91;100.00;153134.34;5049272;28;20447;-75
2023/11/16 05:09:54;;;;;;;2.37;1.43;;;;;;;6.92;100.00;153138.19;5049296;28;20455;-76
2023/11/16 05:12:20;;;;;;;8.27;2.10;;;;;;;6.92;100.00;153136.88;5030658;28;20458;-75
2023/11/16 05:14:49;;;;;;;3.67;1.87;;;;;;;6.93;100.00;153140.78;5035134;28;20474;-75
2023/11/16 05:17:18;;;;;;;3.10;1.70;;;;;;;6.95;100.00;153144.63;5051069;28;20449;-86
2023/11/16 05:19:45;;;;;;;5.23;2.47;;;;;;;6.94;100.00;153142.03;5041346;28;20460;-86
2023/11/16 05:22:11;;;;;;;6.90;2.33;;;;;;;6.94;100.00;153142.03;5041371;28;20466;-86
2023/11/16 05:24:46;;;;;;;3.70;1.73;;;;;;;6.94;100.00;153143.34;5032873;28;20782;-86
2023/11/16 05:27:18;;;;;;;3.03;2.23;;;;;;;6.94;100.00;153142.03;5046381;28;20454;-86
2023/11/16 05:29:45;;;;;;;2.93;1.93;;;;;;;6.92;100.00;153138.19;5052536;28;20462;-85
2023/11/16 05:32:12;;;;;;;3.87;1.70;;;;;;;6.91;100.00;153134.34;5033664;28;20450;-86
2023/11/16 05:34:40;;;;;;;1.87;1.37;;;;;;;6.91;100.00;153134.34;5051605;28;20851;-86
2023/11/16 05:37:07;;;;;;;2.07;1.60;;;;;;;6.88;100.00;153127.88;5047254;28;20775;-85
2023/11/16 05:39:34;;;;;;;4.17;1.60;;;;;;;6.88;100.00;153127.88;5054649;28;20868;-85
2023/11/16 05:42:00;;;;;;;4.30;2.50;;;;;;;6.87;100.00;153125.28;5033159;28;20807;-85
2023/11/16 05:44:27;;;;;;;3.10;1.70;;;;;;;6.87;100.00;153125.28;5051209;28;20446;-85
2023/11/16 05:46:53;;;;;;;3.57;1.77;;;;;;;6.85;100.00;153120.13;5049983;28;20965;-85
2023/11/16 05:49:20;;;;;;;4.37;2.33;;;;;;;6.85;100.00;153120.13;5032323;28;20458;-75
2023/11/16 05:51:48;;;;;;;2.77;1.90;;;;;;;6.86;100.00;153122.69;5049556;28;20486;-75
2023/11/16 05:54:17;;;;;;;6.80;2.17;;;;;;;6.86;100.00;153121.44;5030079;28;20455;-75
2023/11/16 05:56:48;;;;;;;6.13;2.10;;;;;;;6.86;100.00;153122.69;5051550;28;20454;-75
2023/11/16 05:59:15;;;;;;;2.53;1.90;;;;;;;6.85;100.00;153120.13;5036845;28;20454;-75
2023/11/16 06:01:45;;;;;;;2.90;2.07;;;;;;;6.85;100.00;153120.13;5048750;28;20482;-75
2023/11/16 06:04:11;;;;;;;3.70;2.00;;;;;;;6.85;100.00;153120.13;5052695;28;21025;-75
2023/11/16 06:06:38;;;;;;;3.10;1.73;;;;;;;6.85;100.00;153118.81;5034052;28;20832;-75
2023/11/16 06:09:06;;;;;;;4.70;1.80;;;;;;;6.85;100.00;153118.81;5038729;28;20450;-75
2023/11/16 06:11:33;;;;;;;6.23;1.70;;;;;;;6.84;100.00;153116.22;5050090;28;20864;-74
2023/11/16 06:14:00;;;;;;;2.73;2.00;;;;;;;6.83;100.00;153114.94;5035141;28;20466;-74
2023/11/16 06:16:27;;;;;;;1.87;1.43;;;;;;;6.82;100.00;153111.06;5022885;28;20459;-74
2023/11/16 06:18:56;;;;;;;4.77;2.73;;;;;;;6.81;100.00;153108.47;5018411;28;20450;-75
2023/11/16 06:21:22;;;;;;;2.80;2.30;;;;;;;6.81;100.00;153108.47;5032794;28;20467;-75
2023/11/16 06:23:49;;;;;;;2.97;2.03;;;;;;;6.80;100.00;153105.91;5016428;28;21004;-75
2023/11/16 06:26:17;;;;;;;3.90;1.80;;;;;;;6.77;100.00;153099.47;5019874;28;20974;-74
2023/11/16 06:28:44;;;;;;;2.03;1.37;;;;;;;6.77;100.00;153099.47;5022025;28;20448;-74
2023/11/16 06:31:11;;;;;;;4.00;2.10;;;;;;;6.76;100.00;153096.88;5018233;28;20482;-75
2023/11/16 06:33:38;;;;;;;2.93;1.90;;;;;;;6.76;100.00;153096.88;5036338;28;20450;-74
2023/11/16 06:36:05;;;;;;;2.13;1.53;;;;;;;6.74;100.00;153091.72;5040114;28;20509;-74
2023/11/16 06:38:32;;;;;;;4.27;1.80;;;;;;;6.73;100.00;153089.13;5040174;28;20447;-74
2023/11/16 06:41:00;;;;;;;8.40;2.17;;;;;;;6.72;100.00;153086.56;5017790;28;20695;-74
2023/11/16 06:43:28;;;;;;;3.63;1.80;;;;;;;6.71;100.00;153085.28;5036144;28;20453;-74
2023/11/16 06:45:56;;;;;;;2.50;2.10;;;;;;;6.73;100.00;153089.13;5029554;28;20514;-74
2023/11/16 06:48:23;;;;;;;5.03;3.00;;;;;;;6.72;100.00;153086.56;5019446;28;20444;-74
2023/11/16 06:50:50;;;;;;;4.70;3.93;;;;;;;6.74;100.00;153091.72;5035342;28;20517;-74
2023/11/16 06:53:17;;;;;;;5.47;3.70;;;;;;;6.73;100.00;153089.13;5018025;28;20867;-74
2023/11/16 06:55:44;;;;;;;5.57;3.43;;;;;;;6.71;100.00;153085.28;5015431;28;20573;-75
2023/11/16 06:58:10;;;;;;;9.73;4.30;;;;;;;6.71;100.00;153085.28;5036337;28;20493;-74
2023/11/16 07:00:38;;;;;;;5.40;4.50;;;;;;;6.71;100.00;153083.97;5018247;28;20463;-74
2023/11/16 07:03:05;;;;;;;4.80;3.67;;;;;;;6.69;100.00;153080.13;5037193;28;20462;-74
2023/11/16 07:05:32;;;;;;;6.60;3.00;;;;;;;6.71;100.00;153083.97;5018147;28;20541;-74
2023/11/16 07:07:58;;;;;;;7.70;3.13;;;;;;;6.70;100.00;153081.38;5035536;28;21119;-75
2023/11/16 07:10:25;;;;;;;4.17;2.67;;;;;;;6.71;100.00;153085.28;5024278;28;20457;-75
2023/11/16 07:12:52;;;;;;;3.80;2.67;;;;;;;6.70;100.00;153082.66;5038162;28;20463;-75
2023/11/16 07:15:21;;;;;;;3.10;2.80;;;;;;;6.71;100.00;153085.28;5037684;28;20541;-74
2023/11/16 07:17:49;;;;;;;4.47;2.53;;;;;;;6.72;100.00;153087.81;5017081;28;20450;-74
2023/11/16 07:20:16;;;;;;;3.70;2.10;;;;;;;6.74;100.00;153091.72;5012962;28;20465;-75
2023/11/16 07:22:43;;;;;;;3.50;2.40;;;;;;;6.78;100.00;153102.03;5014448;28;20459;-74
2023/11/16 07:25:10;;;;;;;4.93;2.20;;;;;;;6.78;100.00;153102.03;5025814;28;20554;-75
2023/11/16 07:27:38;;;;;;;5.23;2.80;;;;;;;6.81;100.00;153109.78;5036886;28;20459;-75
2023/11/16 07:30:05;;;;;;;3.20;2.43;;;;;;;6.84;100.00;153116.22;5035878;28;20458;-75
2023/11/16 07:32:32;;;;;;;4.73;2.50;;;;;;;6.83;100.00;153114.94;5017148;28;20448;-75
2023/11/16 07:35:00;;;;;;;1.97;1.77;;;;;;;6.83;100.00;153114.94;5032047;28;20471;-75
2023/11/16 07:37:27;;;;;;;4.17;2.00;;;;;;;6.86;100.00;153122.69;5043757;28;21075;-75
2023/11/16 07:39:54;;;;;;;3.83;2.43;;;;;;;6.86;100.00;153122.69;5018068;28;20910;-74
2023/11/16 07:42:21;;;;;;;3.90;1.90;;;;;;;6.88;100.00;153127.88;5018502;28;20542;-75
2023/11/16 07:44:47;;;;;;;3.70;2.63;;;;;;;6.89;100.00;153130.44;5035945;28;20453;-75
2023/11/16 07:47:14;;;;;;;4.80;2.30;;;;;;;6.91;100.00;153134.34;5041103;28;20439;-75
2023/11/16 07:49:41;;;;;;;4.10;2.50;;;;;;;6.93;100.00;153140.78;5040751;28;20463;-75
2023/11/16 07:52:09;;;;;;;3.10;1.83;;;;;;;6.95;100.00;153144.63;5039545;28;20451;-75
2023/11/16 07:54:44;;;;;;;2.90;2.07;;;;;;;6.97;100.00;153149.78;5039293;28;20537;-75
2023/11/16 07:57:13;;;;;;;3.70;2.07;;;;;;;6.99;100.00;153156.25;5021107;28;20457;-75
2023/11/16 07:59:42;;;;;;;3.17;2.50;;;;;;;7.02;100.00;153162.69;5041227;28;20459;-75
2023/11/16 08:02:12;;;;;;;6.30;2.83;;;;;;;7.02;100.00;153162.69;5039773;28;20455;-75
2023/11/16 08:04:39;;;;;;;3.43;2.10;;;;;;;7.05;100.00;153171.75;5038152;28;20912;-75
2023/11/16 08:07:07;;;;;;;2.80;2.00;;;;;;;7.07;100.00;153176.91;5036653;28;20844;-75
2023/11/16 08:09:35;;;;;;;2.93;2.00;;;;;;;7.08;100.00;153179.50;5022999;28;20461;-75
2023/11/16 08:12:04;;;;;;;2.37;2.00;;;;;;;7.09;100.00;153182.09;5042791;28;20444;-75
2023/11/16 08:14:34;;;;;;;3.77;2.57;;;;;;;7.12;100.00;153188.56;5028893;28;20470;-75
2023/11/16 08:17:00;;;;;;;5.90;2.50;;;;;;;7.14;100.00;153195.00;5034936;28;20500;-75
2023/11/16 08:19:31;;;;;;;2.67;1.60;;;;;;;7.15;100.00;153197.56;5039238;28;20884;-75
2023/11/16 08:22:01;;;;;;;3.10;2.37;;;;;;;7.19;100.00;153207.91;5038227;28;20480;-75
2023/11/16 08:24:28;;;;;;;3.77;1.90;;;;;;;7.21;100.00;153213.06;5021911;28;20440;-75
2023/11/16 08:26:58;;;;;;;4.23;2.23;;;;;;;7.24;100.00;153220.81;5038289;28;20825;-75
2023/11/16 08:29:24;;;;;;;3.60;1.97;;;;;;;7.27;100.00;153228.56;5039323;28;20466;-75
2023/11/16 08:31:54;;;;;;;4.07;2.60;;;;;;;7.29;100.00;153232.44;5020795;28;20828;-75
2023/11/16 08:34:20;;;;;;;5.40;2.10;;;;;;;7.30;100.00;153236.34;5038600;28;21985;-75
2023/11/16 08:36:47;;;;;;;4.80;2.37;;;;;;;7.35;100.00;153247.94;5029124;28;20454;-75
2023/11/16 08:39:17;;;;;;;3.23;2.73;;;;;;;7.40;100.00;153260.84;5036704;28;20454;-75
2023/11/16 08:41:44;;;;;;;3.53;2.10;;;;;;;7.42;100.00;153264.69;5020027;28;20541;-75
2023/11/16 08:44:12;;;;;;;3.50;2.17;;;;;;;7.45;100.00;153272.47;5034959;28;20461;-75
2023/11/16 08:46:41;;;;;;;6.60;2.90;;;;;;;7.49;100.00;153282.81;5020965;28;20455;-75
2023/11/16 08:49:09;;;;;;;7.50;3.57;;;;;;;7.50;100.00;153285.38;5018010;28;20466;-75
2023/11/16 08:51:38;;;;;;;3.43;1.93;;;;;;;7.53;100.00;153293.13;5040220;28;20454;-75
2023/11/16 08:54:07;;;;;;;4.67;2.50;;;;;;;7.57;100.00;153304.72;5032911;28;20984;-75
2023/11/16 08:56:35;;;;;;;5.17;2.33;;;;;;;7.60;100.00;153311.25;5036446;28;20509;-75
2023/11/16 08:59:07;;;;;;;4.03;2.07;;;;;;;7.62;100.00;153317.69;5018325;28;20836;-75
2023/11/16 09:01:37;;;;;;;6.20;2.23;;;;;;;7.66;100.00;153326.72;5035048;28;20446;-75
2023/11/16 09:04:05;;;;;;;5.90;2.27;;;;;;;7.68;100.00;153331.84;5018261;28;20448;-75
2023/11/16 09:06:31;;;;;;;4.83;3.10;;;;;;;7.70;100.00;153337.06;5038729;28;20852;-75
2023/11/16 09:09:01;;;;;;;6.67;3.13;;;;;;;7.74;100.00;153347.38;5009053;28;20452;-75
2023/11/16 09:11:28;;;;;;;3.83;2.30;;;;;;;7.78;100.00;153357.72;5040281;28;20463;-75
2023/11/16 09:13:56;;;;;;;5.97;3.03;;;;;;;7.81;100.00;153366.75;5021058;28;20436;-75
2023/11/16 09:16:23;;;;;;;3.53;2.03;;;;;;;7.85;100.00;153377.09;5038738;28;20984;-75
2023/11/16 09:18:51;;;;;;;5.30;2.57;;;;;;;7.88;100.00;153383.56;5050739;28;20443;-75
2023/11/16 09:21:19;;;;;;;2.60;2.13;;;;;;;7.90;100.00;153390.03;5037151;28;21023;-75
2023/11/16 09:23:48;;;;;;;4.23;1.97;;;;;;;7.93;100.00;153396.47;5038080;28;20449;-75
2023/11/16 09:26:15;;;;;;;4.17;2.53;;;;;;;7.95;100.00;153401.63;5037935;28;20816;-75
2023/11/16 09:28:41;;;;;;;4.90;2.50;;;;;;;7.98;100.00;153410.69;5037329;28;20466;-75
2023/11/16 09:31:11;;;;;;;4.37;2.43;;;;;;;7.99;100.00;153412.00;5051643;28;20466;-75
2023/11/16 09:33:39;;;;;;;3.00;1.90;;;;;;;8.04;100.00;153424.91;5037280;28;20957;-75
2023/11/16 09:36:08;;;;;;;7.60;2.03;;;;;;;8.07;100.00;153431.38;5032407;28;21096;-75
2023/11/16 09:38:35;;;;;;;4.03;1.67;;;;;;;8.10;100.00;153440.38;5035531;28;20852;-75
2023/11/16 09:41:07;;;;;;;2.40;1.97;;;;;;;8.11;100.00;153441.69;5035819;28;20544;-75
2023/11/16 09:43:37;;;;;;;3.30;2.20;;;;;;;8.13;100.00;153448.13;5036447;28;20543;-76
2023/11/16 09:46:08;;;;;;;4.03;2.20;;;;;;;8.15;100.00;153452.03;5035551;28;20447;-76
2023/11/16 09:48:39;;;;;;;4.70;2.90;;;;;;;8.17;100.00;153458.50;5034548;28;20447;-76
2023/11/16 09:51:08;;;;;;;2.60;2.17;;;;;;;8.19;100.00;153463.66;5035727;28;20450;-75
2023/11/16 09:53:38;;;;;;;4.60;1.97;;;;;;;8.19;100.00;153463.66;5037285;28;20448;-75
2023/11/16 09:56:06;;;;;;;2.77;1.40;;;;;;;8.21;100.00;153468.81;5037375;28;21053;-75
2023/11/16 09:58:36;;;;;;;4.43;1.90;;;;;;;8.22;100.00;153471.44;5019749;28;20450;-75
2023/11/16 10:01:08;;;;;;;2.47;1.80;;;;;;;8.23;100.00;153472.72;5037591;28;20455;-75
2023/11/16 10:03:36;;;;;;;3.30;1.80;;;;;;;8.25;100.00;153477.88;5019079;28;20451;-75
2023/11/16 10:06:04;;;;;;;3.50;2.60;;;;;;;8.26;100.00;153480.50;5036567;28;20682;-75
2023/11/16 10:08:33;;;;;;;5.10;1.87;;;;;;;8.24;100.00;153476.59;5034829;28;20946;-75
2023/11/16 10:11:02;;;;;;;2.57;1.80;;;;;;;8.28;100.00;153485.69;5037886;28;20470;-75
2023/11/16 10:13:29;;;;;;;3.10;1.70;;;;;;;8.24;100.00;153475.28;5036776;28;20446;-75
2023/11/16 10:16:02;;;;;;;5.03;2.40;;;;;;;8.26;100.00;153481.75;5042149;28;20474;-76
2023/11/16 10:18:29;;;;;;;2.30;1.60;;;;;;;8.26;100.00;153481.75;5041478;28;20852;-75
2023/11/16 10:20:55;;;;;;;3.80;2.40;;;;;;;8.26;100.00;153481.75;5018057;28;21052;-75
2023/11/16 10:23:24;;;;;;;3.50;3.07;;;;;;;8.27;100.00;153483.09;5037034;28;20995;-75
2023/11/16 10:25:54;;;;;;;2.70;2.30;;;;;;;8.28;100.00;153487.00;5035405;28;20533;-75
2023/11/16 10:28:22;;;;;;;4.20;2.43;;;;;;;8.29;100.00;153489.56;5036225;28;20856;-75
2023/11/16 10:30:53;;;;;;;5.57;2.30;;;;;;;8.27;100.00;153484.41;5018076;28;20456;-74
2023/11/16 10:33:23;;;;;;;5.07;2.63;;;;;;;8.29;100.00;153489.56;5035034;28;21956;-75
2023/11/16 10:35:51;;;;;;;4.10;2.80;;;;;;;8.30;100.00;153492.16;5036125;28;20486;-75
2023/11/16 10:38:19;;;;;;;9.03;3.03;;;;;;;8.31;100.00;153494.72;5017634;28;20456;-75
2023/11/16 10:40:48;;;;;;;5.73;2.20;;;;;;;8.36;100.00;153506.38;5019876;28;20558;-75
2023/11/16 10:43:20;;;;;;;4.63;2.43;;;;;;;8.36;100.00;153507.69;5033358;28;20451;-75
2023/11/16 10:45:47;;;;;;;3.90;2.00;;;;;;;8.36;100.00;153506.38;5036896;28;20454;-74
2023/11/16 10:48:13;;;;;;;4.47;2.30;;;;;;;8.38;100.00;153512.84;5036761;28;20448;-75
2023/11/16 10:50:42;;;;;;;3.80;2.10;;;;;;;8.40;100.00;153518.00;5038742;28;20458;-75
2023/11/16 10:53:15;;;;;;;3.47;2.20;;;;;;;8.40;100.00;153518.00;5036556;28;20822;-75
2023/11/16 10:55:44;;;;;;;8.47;2.33;;;;;;;8.39;100.00;153514.13;5035314;28;20516;-75
2023/11/16 10:58:11;;;;;;;3.83;2.30;;;;;;;8.39;100.00;153515.38;5018030;28;20471;-75
2023/11/16 11:00:41;;;;;;;3.50;2.40;;;;;;;8.41;100.00;153519.28;5019029;28;20556;-75
2023/11/16 11:03:10;;;;;;;4.50;2.20;;;;;;;8.40;100.00;153518.00;5042882;28;20493;-75
2023/11/16 11:05:41;;;;;;;4.73;2.63;;;;;;;8.42;100.00;153523.16;5036383;28;20452;-74
2023/11/16 11:08:09;;;;;;;4.93;3.30;;;;;;;8.48;100.00;153538.69;5037204;28;20454;-75
2023/11/16 11:10:37;;;;;;;8.70;4.10;;;;;;;8.52;100.00;153547.75;5033905;28;20459;-75
2023/11/16 11:13:05;;;;;;;5.00;3.93;;;;;;;8.54;100.00;153554.19;5035071;28;20458;-74
2023/11/16 11:15:32;;;;;;;7.20;4.10;;;;;;;8.53;100.00;153551.59;5033567;28;20582;-74
2023/11/16 11:18:00;;;;;;;6.30;4.23;;;;;;;8.54;100.00;153554.19;5034558;28;20451;-76
2023/11/16 11:20:31;;;;;;;5.90;3.80;;;;;;;8.53;100.00;153551.59;5017180;28;20977;-75
2023/11/16 11:23:04;;;;;;;5.50;4.03;;;;;;;8.55;100.00;153556.75;5037527;28;20446;-76
2023/11/16 11:25:32;;;;;;;12.50;6.20;;;;;;;8.56;100.00;153559.38;5033476;28;20478;-76
2023/11/16 11:27:59;;;;;;;7.80;6.07;;;;;;;8.56;100.00;153558.06;5036164;28;20811;-76